createdAt,value
2019-03-29T00:01:36.948Z,4.45
2019-03-29T00:03:44.661Z,4.44
2019-03-29T00:05:50.931Z,4.38
2019-03-29T00:07:57.300Z,4.36
2019-03-29T00:10:03.876Z,4.32
2019-03-29T00:12:10.419Z,4.28
2019-03-29T00:14:17.583Z,4.30
2019-03-29T00:16:24.174Z,4.32
2019-03-29T00:18:30.737Z,4.34
2019-03-29T00:20:37.518Z,4.36
2019-03-29T00:22:45.553Z,4.34
2019-03-29T00:24:52.183Z,4.30
2019-03-29T00:26:59.561Z,4.30
2019-03-29T00:29:06.144Z,4.35
2019-03-29T00:31:12.449Z,4.41
2019-03-29T00:33:19.966Z,4.46
2019-03-29T00:35:26.963Z,4.51
2019-03-29T00:37:33.540Z,4.55
2019-03-29T00:39:40.319Z,4.59
2019-03-29T00:41:47.472Z,4.66
2019-03-29T00:43:54.171Z,4.70
2019-03-29T00:46:01.422Z,4.79
2019-03-29T00:48:07.788Z,4.85
2019-03-29T00:50:14.458Z,4.89
2019-03-29T00:52:20.820Z,4.92
2019-03-29T00:54:28.836Z,4.97
2019-03-29T00:56:35.527Z,5.00
2019-03-29T00:58:42.788Z,5.04
2019-03-29T01:00:49.441Z,5.07
2019-03-29T01:02:56.847Z,5.05
2019-03-29T01:05:04.132Z,5.07
2019-03-29T01:09:25.555Z,5.09
2019-03-29T01:11:32.633Z,5.10
2019-03-29T01:13:39.227Z,5.13
2019-03-29T01:15:45.858Z,5.17
2019-03-29T01:17:53.047Z,5.20
2019-03-29T01:20:00.649Z,5.22
2019-03-29T01:22:07.302Z,5.23
2019-03-29T01:24:14.513Z,5.24
2019-03-29T01:26:21.171Z,5.27
2019-03-29T01:28:27.932Z,5.25
2019-03-29T01:30:34.597Z,5.26
2019-03-29T01:32:41.397Z,5.28
2019-03-29T01:34:48.040Z,5.28
2019-03-29T01:36:54.505Z,5.28
2019-03-29T01:39:00.981Z,5.23
2019-03-29T01:41:08.484Z,5.15
2019-03-29T01:43:15.220Z,5.06
2019-03-29T01:45:21.597Z,4.98
2019-03-29T01:47:28.047Z,4.90
2019-03-29T01:49:34.823Z,4.83
2019-03-29T01:51:41.300Z,4.74
2019-03-29T01:53:47.759Z,4.71
2019-03-29T01:55:54.416Z,4.73
2019-03-29T01:58:00.894Z,4.79
2019-03-29T02:00:09.221Z,4.84
2019-03-29T02:02:15.968Z,4.91
2019-03-29T02:04:22.332Z,5.01
2019-03-29T02:06:29.005Z,5.10
2019-03-29T02:10:46.957Z,5.23
2019-03-29T02:12:53.329Z,5.31
2019-03-29T02:14:59.878Z,5.35
2019-03-29T02:17:06.262Z,5.38
2019-03-29T02:19:13.028Z,5.40
2019-03-29T02:21:19.283Z,5.41
2019-03-29T02:23:26.056Z,5.44
2019-03-29T02:25:32.830Z,5.44
2019-03-29T02:27:39.962Z,5.44
2019-03-29T02:29:47.713Z,5.42
2019-03-29T02:31:53.982Z,5.42
2019-03-29T02:34:00.634Z,5.40
2019-03-29T02:36:07.209Z,5.38
2019-03-29T02:38:14.095Z,5.38
2019-03-29T02:40:22.634Z,5.37
2019-03-29T02:42:28.873Z,5.39
2019-03-29T02:44:36.437Z,5.41
2019-03-29T02:46:42.695Z,5.44
2019-03-29T02:48:49.239Z,5.44
2019-03-29T02:50:55.747Z,5.44
2019-03-29T02:53:02.190Z,5.45
2019-03-29T02:55:10.109Z,5.47
2019-03-29T02:57:16.473Z,5.51
2019-03-29T02:59:23.019Z,5.55
2019-03-29T03:01:29.803Z,5.60
2019-03-29T03:03:36.261Z,5.64
2019-03-29T03:05:42.849Z,5.68
2019-03-29T03:07:49.304Z,5.72
2019-03-29T03:09:56.076Z,5.78
2019-03-29T03:12:03.250Z,5.82
2019-03-29T03:14:09.804Z,5.85
2019-03-29T03:16:16.577Z,5.88
2019-03-29T03:18:23.047Z,5.93
2019-03-29T03:20:29.508Z,5.98
2019-03-29T03:22:36.189Z,5.98
2019-03-29T03:24:44.184Z,6.01
2019-03-29T03:26:51.047Z,6.04
2019-03-29T03:28:57.519Z,6.06
2019-03-29T03:31:05.217Z,6.11
2019-03-29T03:33:11.906Z,6.13
2019-03-29T03:35:19.690Z,6.16
2019-03-29T03:37:26.155Z,6.19
2019-03-29T03:39:32.827Z,6.23
2019-03-29T03:41:39.618Z,6.25
2019-03-29T03:43:46.354Z,6.28
2019-03-29T03:45:52.642Z,6.32
2019-03-29T03:47:59.613Z,6.35
2019-03-29T03:50:08.511Z,6.41
2019-03-29T03:52:15.079Z,6.46
2019-03-29T03:54:21.754Z,6.50
2019-03-29T03:56:29.833Z,6.55
2019-03-29T03:58:36.704Z,6.58
2019-03-29T04:00:53.662Z,6.62
2019-03-29T04:03:00.318Z,6.64
2019-03-29T04:05:08.690Z,6.66
2019-03-29T04:07:14.980Z,6.69
2019-03-29T04:09:21.447Z,6.70
2019-03-29T04:11:27.703Z,6.74
2019-03-29T04:13:34.270Z,6.78
2019-03-29T04:15:44.129Z,6.83
2019-03-29T04:17:50.701Z,6.86
2019-03-29T04:19:57.266Z,6.89
2019-03-29T04:22:03.736Z,6.90
2019-03-29T04:24:10.281Z,6.91
2019-03-29T04:26:17.051Z,6.94
2019-03-29T04:28:24.139Z,6.96
2019-03-29T04:30:30.828Z,6.97
2019-03-29T04:32:38.488Z,6.97
2019-03-29T04:34:46.079Z,6.99
2019-03-29T04:36:54.213Z,6.99
2019-03-29T04:39:00.685Z,6.99
2019-03-29T04:41:07.838Z,7.00
2019-03-29T04:43:14.508Z,7.02
2019-03-29T04:45:20.881Z,7.04
2019-03-29T04:47:28.683Z,7.06
2019-03-29T04:49:35.048Z,7.04
2019-03-29T04:51:41.826Z,7.04
2019-03-29T04:53:48.369Z,7.06
2019-03-29T04:55:55.056Z,7.10
2019-03-29T04:58:04.006Z,7.13
2019-03-29T05:00:12.248Z,7.16
2019-03-29T05:02:20.065Z,7.19
2019-03-29T05:04:27.285Z,7.25
2019-03-29T05:06:33.624Z,7.29
2019-03-29T05:08:40.405Z,7.33
2019-03-29T05:10:46.669Z,7.37
2019-03-29T05:12:53.219Z,7.39
2019-03-29T05:14:59.804Z,7.42
2019-03-29T05:17:06.775Z,7.47
2019-03-29T05:19:13.145Z,7.51
2019-03-29T05:21:19.562Z,7.57
2019-03-29T05:23:26.155Z,7.64
2019-03-29T05:25:32.835Z,7.68
2019-03-29T05:27:39.105Z,7.70
2019-03-29T05:29:45.777Z,7.71
2019-03-29T05:31:53.704Z,7.73
2019-03-29T05:34:00.545Z,7.73
2019-03-29T05:36:07.315Z,7.74
2019-03-29T05:38:14.289Z,7.79
2019-03-29T05:40:33.986Z,7.82
2019-03-29T05:42:29.382Z,7.81
2019-03-29T05:44:35.943Z,7.84
2019-03-29T05:46:43.918Z,7.85
2019-03-29T05:48:50.175Z,7.90
2019-03-29T05:50:56.775Z,7.92
2019-03-29T05:53:05.069Z,7.95
2019-03-29T05:55:12.464Z,7.98
2019-03-29T05:57:19.037Z,8.00
2019-03-29T05:59:25.589Z,8.02
2019-03-29T06:01:32.064Z,8.04
2019-03-29T06:03:38.405Z,8.06
2019-03-29T06:05:44.892Z,8.09
2019-03-29T06:07:51.964Z,8.15
2019-03-29T06:09:58.234Z,8.20
2019-03-29T06:12:05.066Z,8.26
2019-03-29T06:14:11.364Z,8.33
2019-03-29T06:16:18.544Z,8.38
2019-03-29T06:18:25.115Z,8.39
2019-03-29T06:20:32.084Z,8.37
2019-03-29T06:22:38.339Z,8.42
2019-03-29T06:24:44.908Z,8.50
2019-03-29T06:26:51.174Z,8.54
2019-03-29T06:28:58.155Z,8.60
2019-03-29T06:31:04.764Z,8.64
2019-03-29T06:33:13.326Z,8.68
2019-03-29T06:35:19.903Z,8.89
2019-03-29T06:37:27.308Z,8.94
2019-03-29T06:39:34.327Z,9.09
2019-03-29T06:41:40.936Z,9.12
2019-03-29T06:43:47.593Z,9.17
2019-03-29T06:45:54.266Z,9.09
2019-03-29T06:48:00.521Z,9.13
2019-03-29T06:50:08.879Z,9.16
2019-03-29T06:52:15.716Z,9.15
2019-03-29T06:54:22.384Z,9.40
2019-03-29T06:56:28.995Z,9.52
2019-03-29T06:58:35.306Z,9.57
2019-03-29T07:00:41.853Z,9.64
2019-03-29T07:02:48.130Z,9.74
2019-03-29T07:04:54.681Z,9.82
2019-03-29T07:07:01.075Z,9.78
2019-03-29T07:09:08.474Z,9.73
2019-03-29T07:11:17.654Z,9.65
2019-03-29T07:13:24.137Z,9.82
2019-03-29T07:15:30.504Z,9.87
2019-03-29T07:17:37.092Z,9.78
2019-03-29T07:19:43.315Z,9.84
2019-03-29T07:21:50.004Z,9.94
2019-03-29T07:23:56.283Z,10.04
2019-03-29T07:26:04.373Z,10.36
2019-03-29T07:28:10.863Z,10.34
2019-03-29T07:30:19.473Z,10.39
2019-03-29T07:32:26.225Z,10.34
2019-03-29T07:34:32.703Z,10.43
2019-03-29T07:36:39.051Z,10.54
2019-03-29T07:38:45.726Z,10.58
2019-03-29T07:40:52.086Z,10.68
2019-03-29T07:42:58.755Z,10.60
2019-03-29T07:45:10.267Z,10.70
2019-03-29T07:47:15.376Z,10.76
2019-03-29T07:49:22.138Z,10.85
2019-03-29T07:51:28.505Z,10.89
2019-03-29T07:53:35.388Z,10.87
2019-03-29T07:55:41.837Z,10.79
2019-03-29T07:57:48.312Z,10.86
2019-03-29T08:02:10.473Z,11.13
2019-03-29T08:04:16.822Z,11.29
2019-03-29T08:06:24.008Z,11.47
2019-03-29T08:08:34.256Z,11.51
2019-03-29T08:10:40.326Z,11.52
2019-03-29T08:12:46.576Z,11.77
2019-03-29T08:14:53.345Z,11.82
2019-03-29T08:16:59.823Z,12.17
2019-03-29T08:19:07.090Z,12.36
2019-03-29T08:21:13.668Z,12.23
2019-03-29T08:23:20.046Z,12.27
2019-03-29T08:25:27.417Z,12.45
2019-03-29T08:27:33.886Z,12.70
2019-03-29T08:29:42.936Z,12.48
2019-03-29T08:31:49.492Z,12.73
2019-03-29T08:33:57.892Z,12.79
2019-03-29T08:36:04.550Z,12.79
2019-03-29T08:38:12.810Z,12.41
2019-03-29T08:40:19.222Z,12.18
2019-03-29T08:42:26.095Z,12.12
2019-03-29T08:44:32.467Z,12.01
2019-03-29T08:46:38.922Z,12.06
2019-03-29T08:48:45.162Z,12.01
2019-03-29T08:50:51.463Z,12.20
2019-03-29T08:52:58.023Z,12.23
2019-03-29T08:55:05.776Z,12.10
2019-03-29T08:57:12.383Z,12.02
2019-03-29T08:59:18.932Z,11.93
2019-03-29T09:01:26.338Z,12.11
2019-03-29T09:03:33.204Z,12.32
2019-03-29T09:05:42.026Z,12.57
2019-03-29T09:07:50.036Z,12.66
2019-03-29T09:09:56.266Z,12.80
2019-03-29T09:12:13.837Z,12.82
2019-03-29T09:14:10.857Z,12.72
2019-03-29T09:16:17.712Z,12.68
2019-03-29T09:18:25.902Z,12.49
2019-03-29T09:20:34.434Z,12.55
2019-03-29T09:22:39.994Z,12.58
2019-03-29T09:24:48.077Z,12.51
2019-03-29T09:26:54.443Z,12.44
2019-03-29T09:29:01.337Z,12.32
2019-03-29T09:31:08.521Z,12.41
2019-03-29T09:33:15.497Z,12.32
2019-03-29T09:35:22.055Z,12.39
2019-03-29T09:37:28.726Z,12.48
2019-03-29T09:39:35.286Z,12.35
2019-03-29T09:41:42.165Z,12.42
2019-03-29T09:43:48.432Z,12.44
2019-03-29T09:45:55.002Z,12.54
2019-03-29T09:48:01.449Z,12.62
2019-03-29T09:50:10.584Z,12.57
2019-03-29T09:52:17.365Z,12.72
2019-03-29T09:54:23.728Z,12.81
2019-03-29T09:56:38.698Z,12.98
2019-03-29T09:58:39.748Z,12.94
2019-03-29T10:00:46.290Z,12.85
2019-03-29T10:02:54.203Z,13.10
2019-03-29T10:05:00.758Z,13.16
2019-03-29T10:07:07.137Z,13.10
2019-03-29T10:09:13.796Z,13.07
2019-03-29T10:11:22.051Z,13.05
2019-03-29T10:13:28.675Z,12.94
2019-03-29T10:15:35.135Z,13.13
2019-03-29T10:17:41.490Z,13.51
2019-03-29T10:19:49.864Z,13.59
2019-03-29T10:21:56.198Z,13.76
2019-03-29T10:24:02.833Z,13.79
2019-03-29T10:26:09.325Z,13.59
2019-03-29T10:28:15.888Z,13.53
2019-03-29T10:30:41.285Z,13.35
2019-03-29T10:32:47.527Z,13.38
2019-03-29T10:34:54.103Z,13.49
2019-03-29T10:37:00.482Z,13.45
2019-03-29T10:39:12.811Z,13.52
2019-03-29T10:41:22.571Z,13.52
2019-03-29T10:43:27.635Z,13.58
2019-03-29T10:45:39.486Z,13.39
2019-03-29T10:47:43.981Z,13.42
2019-03-29T10:49:50.435Z,13.58
2019-03-29T10:51:56.987Z,13.67
2019-03-29T10:54:03.455Z,13.68
2019-03-29T10:56:09.925Z,13.76
2019-03-29T10:58:16.488Z,13.63
2019-03-29T11:00:38.707Z,13.61
2019-03-29T11:02:45.084Z,13.88
2019-03-29T11:04:51.659Z,14.22
2019-03-29T11:06:58.503Z,14.39
2019-03-29T11:09:09.004Z,14.40
2019-03-29T11:11:15.452Z,14.69
2019-03-29T11:13:22.005Z,14.69
2019-03-29T11:15:28.467Z,14.78
2019-03-29T11:17:35.252Z,14.75
2019-03-29T11:19:41.713Z,14.48
2019-03-29T11:21:48.511Z,14.26
2019-03-29T11:23:55.875Z,14.12
2019-03-29T11:26:02.563Z,14.08
2019-03-29T11:28:09.323Z,14.15
2019-03-29T11:30:15.888Z,13.82
2019-03-29T11:32:22.449Z,13.70
2019-03-29T11:34:29.022Z,13.58
2019-03-29T11:36:35.496Z,13.53
2019-03-29T11:38:41.961Z,13.33
2019-03-29T11:40:48.646Z,13.28
2019-03-29T11:42:55.184Z,13.31
2019-03-29T11:45:01.969Z,13.19
2019-03-29T11:47:08.668Z,13.18
2019-03-29T11:49:15.408Z,13.18
2019-03-29T11:51:21.996Z,13.05
2019-03-29T11:53:28.551Z,12.99
2019-03-29T11:55:34.898Z,12.87
2019-03-29T11:57:42.739Z,12.85
2019-03-29T11:59:49.174Z,12.88
2019-03-29T12:01:55.439Z,12.91
2019-03-29T12:04:03.641Z,12.95
2019-03-29T12:06:10.103Z,12.97
2019-03-29T12:08:16.562Z,12.96
2019-03-29T12:10:23.040Z,12.91
2019-03-29T12:12:29.489Z,12.93
2019-03-29T12:14:35.858Z,12.87
2019-03-29T12:16:42.657Z,12.87
2019-03-29T12:18:49.103Z,12.91
2019-03-29T12:20:55.987Z,12.84
2019-03-29T12:23:03.200Z,12.82
2019-03-29T12:25:10.740Z,12.76
2019-03-29T12:27:17.119Z,12.72
2019-03-29T12:31:37.609Z,12.61
2019-03-29T12:33:44.188Z,12.64
2019-03-29T12:35:52.868Z,12.67
2019-03-29T12:37:59.339Z,12.62
2019-03-29T12:40:09.925Z,12.62
2019-03-29T12:42:16.910Z,12.56
2019-03-29T12:44:23.261Z,12.55
2019-03-29T12:46:32.472Z,12.49
2019-03-29T12:48:38.877Z,12.52
2019-03-29T12:50:45.316Z,12.57
2019-03-29T12:52:51.879Z,12.62
2019-03-29T12:54:58.150Z,12.67
2019-03-29T12:57:06.979Z,12.61
2019-03-29T12:59:13.430Z,12.60
2019-03-29T13:01:20.021Z,12.63
2019-03-29T13:03:28.209Z,12.69
2019-03-29T13:05:34.684Z,12.79
2019-03-29T13:07:41.239Z,12.81
2019-03-29T13:09:47.812Z,12.79
2019-03-29T13:11:54.673Z,12.82
2019-03-29T13:14:10.237Z,12.87
2019-03-29T13:16:09.269Z,12.96
2019-03-29T13:18:17.256Z,13.09
2019-03-29T13:20:23.610Z,13.06
2019-03-29T13:22:30.389Z,13.10
2019-03-29T13:24:36.952Z,13.15
2019-03-29T13:26:43.429Z,13.23
2019-03-29T13:28:49.996Z,13.16
2019-03-29T13:30:56.654Z,13.22
2019-03-29T13:33:03.332Z,13.18
2019-03-29T13:35:10.423Z,13.18
2019-03-29T13:37:16.751Z,13.24
2019-03-29T13:39:23.450Z,13.31
2019-03-29T13:41:29.708Z,13.30
2019-03-29T13:43:36.990Z,13.30
2019-03-29T13:45:43.570Z,13.22
2019-03-29T13:47:51.853Z,13.20
2019-03-29T13:49:58.741Z,13.18
2019-03-29T13:52:05.260Z,13.18
2019-03-29T13:54:11.769Z,13.11
2019-03-29T13:56:19.801Z,13.03
2019-03-29T13:58:26.129Z,13.04
2019-03-29T14:00:32.605Z,13.03
2019-03-29T14:02:38.855Z,13.02
2019-03-29T14:04:45.209Z,13.11
2019-03-29T14:06:51.894Z,13.23
2019-03-29T14:09:01.210Z,13.32
2019-03-29T14:11:09.440Z,13.33
2019-03-29T14:13:15.972Z,13.28
2019-03-29T14:15:24.084Z,13.28
2019-03-29T14:17:31.104Z,13.24
2019-03-29T14:19:37.651Z,13.25
2019-03-29T14:21:45.431Z,13.25
2019-03-29T14:23:51.791Z,13.14
2019-03-29T14:26:00.743Z,13.11
2019-03-29T14:28:10.482Z,13.05
2019-03-29T14:30:17.228Z,12.98
2019-03-29T14:32:25.043Z,13.00
2019-03-29T14:34:31.500Z,13.01
2019-03-29T14:36:38.895Z,12.99
2019-03-29T14:38:45.561Z,12.97
2019-03-29T14:40:51.909Z,12.92
2019-03-29T14:42:58.871Z,12.85
2019-03-29T14:45:08.354Z,12.76
2019-03-29T14:47:14.787Z,12.68
2019-03-29T14:49:21.750Z,12.64
2019-03-29T14:51:28.131Z,12.66
2019-03-29T14:53:34.620Z,12.65
2019-03-29T14:55:41.470Z,12.61
2019-03-29T14:57:48.041Z,12.60
2019-03-29T14:59:55.435Z,12.63
2019-03-29T15:02:01.690Z,12.67
2019-03-29T15:04:08.661Z,12.69
2019-03-29T15:06:15.021Z,12.67
2019-03-29T15:08:21.797Z,12.69
2019-03-29T15:10:31.849Z,12.70
2019-03-29T15:12:38.710Z,12.63
2019-03-29T15:14:45.387Z,12.59
2019-03-29T15:16:52.489Z,12.56
2019-03-29T15:18:58.744Z,12.52
2019-03-29T15:21:05.981Z,12.49
2019-03-29T15:23:21.380Z,12.44
2019-03-29T15:25:40.601Z,12.44
2019-03-29T15:27:53.270Z,12.43
2019-03-29T15:29:59.938Z,12.38
2019-03-29T15:32:07.017Z,12.40
2019-03-29T15:34:13.685Z,12.41
2019-03-29T15:36:20.263Z,12.48
2019-03-29T15:38:26.924Z,12.54
2019-03-29T15:40:33.805Z,12.56
2019-03-29T15:42:40.890Z,12.59
2019-03-29T15:44:47.795Z,12.60
2019-03-29T15:46:54.714Z,12.54
2019-03-29T15:49:01.304Z,12.51
2019-03-29T15:51:07.658Z,12.48
2019-03-29T15:53:14.507Z,12.46
2019-03-29T15:55:20.891Z,12.51
2019-03-29T15:57:28.357Z,12.50
2019-03-29T15:59:38.236Z,12.51
2019-03-29T16:01:54.520Z,12.50
2019-03-29T16:04:01.295Z,12.55
2019-03-29T16:06:07.864Z,12.49
2019-03-29T16:08:14.404Z,12.51
2019-03-29T16:10:21.107Z,12.59
2019-03-29T16:12:27.716Z,12.69
2019-03-29T16:14:34.246Z,12.67
2019-03-29T16:16:40.838Z,12.66
2019-03-29T16:18:47.264Z,12.67
2019-03-29T16:20:53.945Z,12.60
2019-03-29T16:23:00.305Z,12.65
2019-03-29T16:25:08.794Z,12.51
2019-03-29T16:27:15.374Z,12.46
2019-03-29T16:29:21.827Z,12.43
2019-03-29T16:31:28.295Z,12.42
2019-03-29T16:33:35.071Z,12.36
2019-03-29T16:35:41.349Z,12.26
2019-03-29T16:37:56.934Z,12.23
2019-03-29T16:39:56.611Z,12.16
2019-03-29T16:42:03.069Z,12.12
2019-03-29T16:44:09.391Z,12.29
2019-03-29T16:46:18.082Z,12.28
2019-03-29T16:48:24.425Z,12.35
2019-03-29T16:50:30.805Z,12.26
2019-03-29T16:52:37.174Z,12.17
2019-03-29T16:54:44.032Z,12.11
2019-03-29T16:56:50.790Z,12.05
2019-03-29T16:59:18.504Z,12.04
2019-03-29T17:01:25.275Z,11.98
2019-03-29T17:03:33.771Z,11.91
2019-03-29T17:05:43.173Z,11.85
2019-03-29T17:07:49.954Z,11.85
2019-03-29T17:09:57.854Z,11.82
2019-03-29T17:12:04.594Z,11.83
2019-03-29T17:14:11.385Z,11.82
2019-03-29T17:16:29.903Z,11.85
2019-03-29T17:18:29.583Z,11.89
2019-03-29T17:20:36.522Z,11.84
2019-03-29T17:22:44.029Z,11.78
2019-03-29T17:24:56.776Z,11.76
2019-03-29T17:26:59.914Z,11.72
2019-03-29T17:29:08.023Z,11.67
2019-03-29T17:31:16.775Z,11.64
2019-03-29T17:33:23.206Z,11.58
2019-03-29T17:35:30.045Z,11.59
2019-03-29T17:37:36.587Z,11.56
2019-03-29T17:39:43.904Z,11.54
2019-03-29T17:41:51.004Z,11.53
2019-03-29T17:43:57.483Z,11.54
2019-03-29T17:46:15.404Z,11.53
2019-03-29T17:48:12.978Z,11.50
2019-03-29T17:50:19.755Z,11.46
2019-03-29T17:52:26.739Z,11.43
2019-03-29T17:54:34.245Z,11.42
2019-03-29T17:56:41.001Z,11.40
2019-03-29T17:58:47.784Z,11.39
2019-03-29T18:00:54.769Z,11.37
2019-03-29T18:03:01.650Z,11.36
2019-03-29T18:05:09.464Z,11.35
2019-03-29T18:07:16.591Z,11.33
2019-03-29T18:09:23.403Z,11.32
2019-03-29T18:11:30.294Z,11.32
2019-03-29T18:13:39.226Z,11.31
2019-03-29T18:15:46.324Z,11.30
2019-03-29T18:17:53.501Z,11.30
2019-03-29T18:20:00.095Z,11.28
2019-03-29T18:22:08.723Z,11.27
2019-03-29T18:24:15.336Z,11.27
2019-03-29T18:26:23.006Z,11.26
2019-03-29T18:28:30.247Z,11.25
2019-03-29T18:30:41.616Z,11.22
2019-03-29T18:32:49.994Z,11.23
2019-03-29T18:34:59.065Z,11.22
2019-03-29T18:37:07.187Z,11.20
2019-03-29T18:39:14.092Z,11.19
2019-03-29T18:41:21.185Z,11.17
2019-03-29T18:43:28.225Z,11.17
2019-03-29T18:45:35.075Z,11.16
2019-03-29T18:47:44.024Z,11.14
2019-03-29T18:49:50.746Z,11.13
2019-03-29T18:51:57.664Z,11.12
2019-03-29T18:54:04.461Z,11.10
2019-03-29T18:56:11.353Z,11.09
2019-03-29T18:58:21.104Z,11.07
2019-03-29T19:00:37.507Z,11.06
2019-03-29T19:02:44.102Z,11.05
2019-03-29T19:04:51.346Z,11.05
2019-03-29T19:06:58.091Z,11.03
2019-03-29T19:09:07.055Z,11.03
2019-03-29T19:11:14.124Z,11.01
2019-03-29T19:13:22.975Z,11.00
2019-03-29T19:15:30.013Z,11.01
2019-03-29T19:17:36.689Z,11.00
2019-03-29T19:19:43.635Z,11.00
2019-03-29T19:21:50.512Z,10.98
2019-03-29T19:23:57.694Z,10.98
2019-03-29T19:26:05.037Z,10.98
2019-03-29T19:28:12.525Z,10.97
2019-03-29T19:30:20.674Z,10.97
2019-03-29T19:32:28.025Z,10.97
2019-03-29T19:34:34.946Z,10.96
2019-03-29T19:36:44.820Z,10.94
2019-03-29T19:38:51.705Z,10.92
2019-03-29T19:40:58.954Z,10.92
2019-03-29T19:43:06.399Z,10.91
2019-03-29T19:45:13.795Z,10.91
2019-03-29T19:47:20.735Z,10.89
2019-03-29T19:49:27.569Z,10.88
2019-03-29T19:51:34.338Z,10.86
2019-03-29T19:53:41.440Z,10.86
2019-03-29T19:55:49.816Z,10.85
2019-03-29T19:57:57.009Z,10.87
2019-03-29T20:00:07.935Z,10.85
2019-03-29T20:02:21.959Z,10.84
2019-03-29T20:04:30.102Z,10.85
2019-03-29T20:06:37.605Z,10.84
2019-03-29T20:08:44.122Z,10.83
2019-03-29T20:10:51.019Z,10.82
2019-03-29T20:12:59.275Z,10.80
2019-03-29T20:15:12.274Z,10.80
2019-03-29T20:17:27.381Z,10.78
2019-03-29T20:19:28.522Z,10.78
2019-03-29T20:21:35.835Z,10.77
2019-03-29T20:23:43.436Z,10.77
2019-03-29T20:25:51.642Z,10.74
2019-03-29T20:28:00.274Z,10.73
2019-03-29T20:30:08.785Z,10.72
2019-03-29T20:32:16.716Z,10.69
2019-03-29T20:34:23.604Z,10.68
2019-03-29T20:36:30.991Z,10.66
2019-03-29T20:38:37.601Z,10.65
2019-03-29T20:40:46.458Z,10.65
2019-03-29T20:42:53.364Z,10.64
2019-03-29T20:45:00.836Z,10.64
2019-03-29T20:47:08.376Z,10.63
2019-03-29T20:49:15.126Z,10.62
2019-03-29T20:51:22.184Z,10.62
2019-03-29T20:53:31.617Z,10.61
2019-03-29T20:55:39.077Z,10.60
2019-03-29T20:57:46.011Z,10.59
2019-03-29T20:59:52.955Z,10.59
2019-03-29T21:02:00.005Z,10.58
2019-03-29T21:04:08.404Z,10.56
2019-03-29T21:06:15.475Z,10.55
2019-03-29T21:08:22.524Z,10.55
2019-03-29T21:10:29.391Z,10.53
2019-03-29T21:12:36.054Z,10.51
2019-03-29T21:14:43.111Z,10.51
2019-03-29T21:16:49.764Z,10.52
2019-03-29T21:18:57.284Z,10.52
2019-03-29T21:21:05.162Z,10.51
2019-03-29T21:23:12.005Z,10.48
2019-03-29T21:25:19.435Z,10.49
2019-03-29T21:27:26.264Z,10.49
2019-03-29T21:29:33.225Z,10.48
2019-03-29T21:31:40.422Z,10.49
2019-03-29T21:33:48.521Z,10.51
2019-03-29T21:35:56.546Z,10.50
2019-03-29T21:38:03.215Z,10.49
2019-03-29T21:40:11.524Z,10.48
2019-03-29T21:42:18.561Z,10.44
2019-03-29T21:44:25.745Z,10.41
2019-03-29T21:46:34.484Z,10.39
2019-03-29T21:48:41.675Z,10.38
2019-03-29T21:50:50.352Z,10.36
2019-03-29T21:52:57.359Z,10.35
2019-03-29T21:55:05.050Z,10.35
2019-03-29T21:57:13.162Z,10.33
2019-03-29T21:59:20.740Z,10.33
2019-03-29T22:01:27.301Z,10.33
2019-03-29T22:03:33.563Z,10.33
2019-03-29T22:05:41.791Z,10.34
2019-03-29T22:07:49.782Z,10.32
2019-03-29T22:09:56.151Z,10.31
2019-03-29T22:12:03.214Z,10.29
2019-03-29T22:14:09.780Z,10.27
2019-03-29T22:16:16.217Z,10.27
2019-03-29T22:18:36.846Z,10.27
2019-03-29T22:20:31.223Z,10.26
2019-03-29T22:22:38.328Z,10.24
2019-03-29T22:24:45.182Z,10.26
2019-03-29T22:26:53.592Z,10.25
2019-03-29T22:29:00.365Z,10.24
2019-03-29T22:31:06.719Z,10.25
2019-03-29T22:33:13.292Z,10.24
2019-03-29T22:35:19.652Z,10.23
2019-03-29T22:37:26.351Z,10.22
2019-03-29T22:39:33.003Z,10.24
2019-03-29T22:41:39.563Z,10.26
2019-03-29T22:43:46.131Z,10.27
2019-03-29T22:45:52.592Z,10.29
2019-03-29T22:47:59.154Z,10.28
2019-03-29T22:50:08.092Z,10.25
2019-03-29T22:52:14.432Z,10.25
2019-03-29T22:54:20.812Z,10.21
2019-03-29T22:56:27.263Z,10.23
2019-03-29T22:58:33.733Z,10.26
2019-03-29T23:00:47.769Z,10.30
2019-03-29T23:02:54.534Z,10.32
2019-03-29T23:05:03.073Z,10.35
2019-03-29T23:07:09.733Z,10.37
2019-03-29T23:09:18.017Z,10.39
2019-03-29T23:11:24.821Z,10.44
2019-03-29T23:13:31.285Z,10.44
2019-03-29T23:15:37.854Z,10.43
2019-03-29T23:17:44.313Z,10.45
2019-03-29T23:19:50.885Z,10.44
2019-03-29T23:21:57.654Z,10.44
2019-03-29T23:24:04.114Z,10.41
2019-03-29T23:26:10.804Z,10.41
2019-03-29T23:28:17.343Z,10.41
2019-03-29T23:30:24.186Z,10.42
2019-03-29T23:32:30.594Z,10.43
2019-03-29T23:34:37.176Z,10.40
2019-03-29T23:36:43.621Z,10.39
2019-03-29T23:38:50.405Z,10.39
2019-03-29T23:40:56.774Z,10.38
2019-03-29T23:43:03.225Z,10.37
2019-03-29T23:45:09.894Z,10.35
2019-03-29T23:47:17.794Z,10.34
2019-03-29T23:49:24.054Z,10.35
2019-03-29T23:51:30.623Z,10.32
2019-03-29T23:53:38.323Z,10.32
2019-03-29T23:55:44.784Z,10.32
2019-03-29T23:57:51.565Z,10.32
2019-03-29T23:59:57.813Z,10.31
